createdAt,value
2022-10-09T00:01:35.070Z,4.97
2022-10-09T00:04:07.916Z,6.43
2022-10-09T00:06:40.958Z,4.32
2022-10-09T00:09:15.479Z,5.90
2022-10-09T00:11:48.276Z,5.82
2022-10-09T00:14:21.012Z,7.30
2022-10-09T00:16:55.198Z,8.25
2022-10-09T00:19:28.078Z,5.28
2022-10-09T00:22:00.844Z,6.88
2022-10-09T00:24:34.837Z,6.47
2022-10-09T00:27:07.582Z,5.93
2022-10-09T00:29:40.409Z,8.73
2022-10-09T00:32:13.309Z,6.32
2022-10-09T00:34:46.229Z,5.13
2022-10-09T00:37:19.201Z,4.55
2022-10-09T00:39:53.403Z,6.68
2022-10-09T00:42:26.472Z,5.35
2022-10-09T00:47:39.575Z,7.00
2022-10-09T00:50:19.008Z,10.48
2022-10-09T00:52:55.333Z,5.07
2022-10-09T00:55:30.879Z,7.72
2022-10-09T00:58:04.070Z,5.95
2022-10-09T01:00:36.877Z,6.90
2022-10-09T01:03:09.714Z,6.00
2022-10-09T01:05:51.962Z,5.50
2022-10-09T01:08:29.204Z,5.87
2022-10-09T01:11:11.122Z,6.50
2022-10-09T01:13:47.965Z,6.38
2022-10-09T01:16:26.822Z,6.70
2022-10-09T01:19:07.223Z,5.18
2022-10-09T01:21:47.696Z,3.97
2022-10-09T01:24:31.031Z,3.90
2022-10-09T01:29:45.856Z,7.18
2022-10-09T01:32:21.183Z,6.22
2022-10-09T01:34:55.371Z,4.30
2022-10-09T01:37:30.643Z,5.57
2022-10-09T01:40:05.018Z,5.70
2022-10-09T01:42:39.511Z,4.18
2022-10-09T01:45:13.143Z,3.33
2022-10-09T01:47:46.462Z,5.07
2022-10-09T01:50:26.832Z,2.97
2022-10-09T01:53:03.932Z,6.10
2022-10-09T01:55:43.008Z,4.57
2022-10-09T01:58:22.691Z,5.00
2022-10-09T02:01:01.556Z,6.60
2022-10-09T02:03:37.468Z,4.65
2022-10-09T02:06:25.705Z,4.47
2022-10-09T02:09:07.431Z,3.35
2022-10-09T02:11:42.968Z,5.15
2022-10-09T02:14:18.168Z,5.10
2022-10-09T02:16:57.164Z,4.65
2022-10-09T02:19:36.915Z,4.70
2022-10-09T02:22:16.032Z,4.97
2022-10-09T02:24:49.363Z,4.93
2022-10-09T02:27:22.975Z,4.97
2022-10-09T02:29:58.923Z,5.05
2022-10-09T02:32:31.784Z,3.85
2022-10-09T02:35:04.931Z,3.65
2022-10-09T02:37:37.741Z,3.00
2022-10-09T02:40:12.226Z,4.90
2022-10-09T02:42:45.425Z,5.47
2022-10-09T02:45:19.602Z,2.75
2022-10-09T02:47:52.263Z,3.95
2022-10-09T02:50:25.246Z,6.43
2022-10-09T02:52:57.978Z,3.45
2022-10-09T02:55:30.965Z,3.67
2022-10-09T02:58:03.741Z,5.95
2022-10-09T03:00:39.042Z,5.97
2022-10-09T03:03:11.773Z,3.03
2022-10-09T03:05:45.044Z,4.47
2022-10-09T03:08:17.736Z,4.15
2022-10-09T03:10:50.593Z,3.65
2022-10-09T03:13:23.308Z,4.68
2022-10-09T03:16:03.647Z,4.25
2022-10-09T03:18:37.630Z,3.40
2022-10-09T03:21:12.857Z,4.45
2022-10-09T03:23:45.977Z,3.03
2022-10-09T03:34:20.991Z,4.18
2022-10-09T03:39:27.180Z,3.90
2022-10-09T03:42:00.034Z,3.08
2022-10-09T03:44:32.684Z,3.90
2022-10-09T03:47:06.956Z,2.50
2022-10-09T03:49:39.864Z,3.72
2022-10-09T03:52:13.363Z,3.88
2022-10-09T03:54:46.079Z,4.32
2022-10-09T03:57:19.717Z,4.72
2022-10-09T03:59:52.430Z,3.25
2022-10-09T04:02:26.784Z,3.28
2022-10-09T04:04:59.520Z,1.55
2022-10-09T04:07:32.340Z,2.80
2022-10-09T04:10:06.118Z,3.47
2022-10-09T04:12:39.307Z,2.70
2022-10-09T04:15:12.165Z,5.05
2022-10-09T04:20:20.782Z,7.05
2022-10-09T04:22:53.586Z,2.75
2022-10-09T04:25:28.468Z,4.55
2022-10-09T04:28:01.402Z,3.35
2022-10-09T04:30:34.133Z,4.88
2022-10-09T04:33:12.800Z,3.75
2022-10-09T04:35:46.691Z,3.35
2022-10-09T04:38:19.837Z,2.13
2022-10-09T04:40:59.160Z,4.18
2022-10-09T04:43:33.094Z,3.35
2022-10-09T04:46:07.271Z,3.60
2022-10-09T04:48:42.497Z,4.32
2022-10-09T04:51:16.447Z,2.55
2022-10-09T04:53:49.767Z,4.28
2022-10-09T04:56:23.524Z,3.60
2022-10-09T04:58:56.656Z,4.07
2022-10-09T05:04:10.192Z,5.25
2022-10-09T05:06:42.838Z,4.65
2022-10-09T05:09:15.701Z,4.72
2022-10-09T05:11:48.380Z,6.97
2022-10-09T05:14:21.080Z,3.75
2022-10-09T05:17:13.057Z,5.18
2022-10-09T05:19:48.161Z,3.47
2022-10-09T05:22:20.992Z,4.45
2022-10-09T05:24:53.730Z,3.30
2022-10-09T05:27:26.460Z,4.25
2022-10-09T05:29:59.294Z,2.90
2022-10-09T05:32:32.055Z,3.65
2022-10-09T05:35:07.108Z,5.80
2022-10-09T05:37:39.877Z,4.40
2022-10-09T05:40:13.171Z,4.30
2022-10-09T05:42:46.116Z,4.68
2022-10-09T05:47:51.592Z,3.27
2022-10-09T05:50:25.975Z,4.45
2022-10-09T05:52:58.640Z,5.50
2022-10-09T05:55:31.530Z,4.32
2022-10-09T05:58:04.588Z,9.63
2022-10-09T06:00:37.787Z,5.45
2022-10-09T06:05:44.858Z,4.60
2022-10-09T06:08:17.725Z,5.18
2022-10-09T06:10:50.443Z,6.40
2022-10-09T06:13:23.462Z,5.35
2022-10-09T06:15:56.269Z,4.80
2022-10-09T06:18:29.191Z,7.13
2022-10-09T06:21:03.539Z,8.32
2022-10-09T06:23:37.557Z,4.35
2022-10-09T06:26:12.212Z,5.65
2022-10-09T06:28:44.959Z,4.57
2022-10-09T06:31:19.660Z,5.75
2022-10-09T06:33:53.668Z,7.63
2022-10-09T06:36:29.311Z,5.43
2022-10-09T06:39:04.257Z,4.15
2022-10-09T06:41:37.348Z,3.47
2022-10-09T06:44:28.373Z,3.92
2022-10-09T06:47:01.066Z,6.72
2022-10-09T06:49:33.706Z,6.82
2022-10-09T06:52:07.976Z,3.05
2022-10-09T06:54:40.770Z,4.95
2022-10-09T06:57:13.677Z,4.97
2022-10-09T06:59:46.667Z,3.70
2022-10-09T07:02:19.869Z,7.50
2022-10-09T07:04:52.557Z,6.18
2022-10-09T07:07:26.766Z,5.38
2022-10-09T07:09:59.631Z,5.60
2022-10-09T07:12:32.425Z,6.80
2022-10-09T07:15:07.374Z,8.25
2022-10-09T07:17:40.117Z,6.65
2022-10-09T07:20:12.798Z,4.40
2022-10-09T07:22:47.321Z,5.88
2022-10-09T07:25:20.236Z,3.90
2022-10-09T07:27:52.970Z,5.38
2022-10-09T07:30:25.766Z,3.85
2022-10-09T07:32:58.808Z,6.38
2022-10-09T07:35:31.513Z,6.68
2022-10-09T07:38:05.725Z,7.13
2022-10-09T07:40:38.499Z,7.90
2022-10-09T07:43:11.237Z,7.75
2022-10-09T07:45:44.475Z,8.95
2022-10-09T07:48:17.681Z,8.00
2022-10-09T07:50:50.379Z,5.63
2022-10-09T07:53:24.866Z,11.20
2022-10-09T07:55:57.579Z,8.73
2022-10-09T07:58:30.404Z,9.52
2022-10-09T08:01:07.177Z,10.05
2022-10-09T08:03:40.057Z,12.10
2022-10-09T08:06:12.967Z,5.63
2022-10-09T08:08:50.087Z,7.90
2022-10-09T08:11:23.847Z,6.15
2022-10-09T08:13:57.191Z,6.35
2022-10-09T08:16:30.515Z,7.50
2022-10-09T08:19:03.317Z,10.50
2022-10-09T08:21:36.073Z,9.23
2022-10-09T08:24:11.553Z,9.43
2022-10-09T08:26:45.321Z,8.98
2022-10-09T08:29:21.057Z,8.70
2022-10-09T08:31:54.374Z,10.85
2022-10-09T08:34:27.177Z,7.72
2022-10-09T08:36:59.860Z,11.07
2022-10-09T08:39:33.974Z,10.32
2022-10-09T08:42:06.904Z,6.82
2022-10-09T08:44:49.128Z,7.85
2022-10-09T08:47:25.720Z,8.85
2022-10-09T08:50:06.339Z,11.82
2022-10-09T08:52:51.075Z,13.52
2022-10-09T08:55:28.104Z,7.75
2022-10-09T08:58:05.435Z,8.85
2022-10-09T09:00:44.270Z,7.93
2022-10-09T09:03:46.569Z,9.63
2022-10-09T09:06:26.604Z,6.30
2022-10-09T09:09:06.259Z,10.90
2022-10-09T09:11:48.366Z,11.15
2022-10-09T09:14:35.893Z,7.28
2022-10-09T09:17:18.961Z,10.95
2022-10-09T09:20:05.458Z,10.13
2022-10-09T09:22:44.412Z,8.93
2022-10-09T09:25:23.427Z,12.68
2022-10-09T09:28:03.217Z,11.15
2022-10-09T09:30:42.062Z,6.55
2022-10-09T09:33:22.226Z,11.73
2022-10-09T09:36:06.270Z,11.73
2022-10-09T09:39:02.417Z,7.53
2022-10-09T09:41:31.841Z,8.73
2022-10-09T09:44:08.483Z,10.18
2022-10-09T09:46:43.026Z,9.23
2022-10-09T09:49:16.674Z,9.73
2022-10-09T09:51:50.807Z,8.52
2022-10-09T09:54:26.084Z,7.78
2022-10-09T09:57:12.903Z,11.90
2022-10-09T09:59:49.355Z,10.98
2022-10-09T10:02:23.920Z,8.65
2022-10-09T10:05:00.608Z,6.95
2022-10-09T10:07:35.547Z,6.90
2022-10-09T10:10:19.761Z,8.68
2022-10-09T10:12:57.939Z,6.30
2022-10-09T10:15:33.849Z,5.45
2022-10-09T10:18:08.207Z,11.48
2022-10-09T10:20:48.546Z,14.75
2022-10-09T10:23:32.004Z,8.48
2022-10-09T10:26:09.722Z,4.93
2022-10-09T10:28:49.315Z,9.00
2022-10-09T10:31:36.682Z,5.72
2022-10-09T10:34:17.844Z,7.70
2022-10-09T10:37:02.494Z,6.07
2022-10-09T10:39:44.991Z,8.38
2022-10-09T10:42:22.418Z,10.32
2022-10-09T10:45:03.824Z,7.10
2022-10-09T10:47:44.143Z,11.07
2022-10-09T10:50:18.079Z,9.20
2022-10-09T10:53:02.744Z,7.32
2022-10-09T10:55:46.729Z,4.90
2022-10-09T10:58:27.337Z,8.48
2022-10-09T11:01:17.100Z,7.30
2022-10-09T11:04:16.733Z,6.50
2022-10-09T11:06:59.112Z,6.65
2022-10-09T11:09:38.928Z,8.50
2022-10-09T11:12:30.055Z,11.52
2022-10-09T11:15:21.226Z,9.10
2022-10-09T11:18:03.823Z,5.30
2022-10-09T11:21:00.431Z,6.80
2022-10-09T11:23:51.016Z,5.85
2022-10-09T11:26:32.906Z,4.85
2022-10-09T11:29:10.322Z,9.13
2022-10-09T11:31:49.758Z,8.10
2022-10-09T11:34:29.186Z,5.10
2022-10-09T11:37:08.393Z,5.03
2022-10-09T11:39:42.359Z,7.32
2022-10-09T11:42:20.661Z,5.35
2022-10-09T11:45:04.070Z,5.00
2022-10-09T11:47:45.824Z,5.57
2022-10-09T11:50:37.922Z,4.60
2022-10-09T11:53:16.049Z,5.63
2022-10-09T11:55:49.170Z,7.07
2022-10-09T11:58:24.462Z,5.78
2022-10-09T12:01:10.908Z,6.68
2022-10-09T12:03:44.667Z,9.93
2022-10-09T12:06:20.084Z,4.13
2022-10-09T12:08:59.643Z,10.02
2022-10-09T12:11:34.054Z,4.60
2022-10-09T12:14:08.983Z,6.22
2022-10-09T12:16:44.768Z,4.25
2022-10-09T12:19:21.089Z,4.40
2022-10-09T12:22:01.727Z,5.57
2022-10-09T12:24:40.414Z,5.30
2022-10-09T12:27:19.403Z,5.55
2022-10-09T12:29:56.110Z,5.15
2022-10-09T12:32:34.267Z,5.15
2022-10-09T12:35:18.758Z,6.35
2022-10-09T12:37:51.604Z,5.03
2022-10-09T12:40:28.901Z,4.43
2022-10-09T12:43:09.086Z,8.32
2022-10-09T12:45:45.643Z,6.60
2022-10-09T12:48:22.378Z,5.50
2022-10-09T12:50:56.025Z,7.35
2022-10-09T12:53:29.993Z,5.25
2022-10-09T12:56:13.213Z,4.75
2022-10-09T12:58:46.193Z,5.95
2022-10-09T13:03:56.887Z,7.03
2022-10-09T13:06:36.277Z,3.72
2022-10-09T13:09:20.596Z,5.57
2022-10-09T13:11:58.998Z,5.60
2022-10-09T13:14:37.006Z,6.97
2022-10-09T13:17:23.884Z,7.70
2022-10-09T13:19:58.470Z,3.50
2022-10-09T13:22:35.748Z,2.90
2022-10-09T13:25:10.634Z,7.25
2022-10-09T13:27:44.793Z,7.40
2022-10-09T13:30:17.820Z,5.55
2022-10-09T13:35:23.627Z,5.78
2022-10-09T13:37:56.311Z,7.10
2022-10-09T13:40:28.909Z,6.18
2022-10-09T13:43:05.824Z,7.75
2022-10-09T13:45:38.682Z,6.13
2022-10-09T13:48:11.422Z,6.30
2022-10-09T13:50:44.130Z,4.60
2022-10-09T13:53:16.846Z,5.85
2022-10-09T13:55:49.466Z,5.07
2022-10-09T13:58:23.573Z,3.30
2022-10-09T14:00:56.258Z,4.45
2022-10-09T14:03:28.903Z,8.30
2022-10-09T14:06:03.833Z,6.78
2022-10-09T14:08:36.813Z,4.30
2022-10-09T14:11:09.696Z,6.47
2022-10-09T14:13:44.286Z,4.28
2022-10-09T14:16:17.032Z,4.63
2022-10-09T14:18:49.781Z,4.18
2022-10-09T14:21:22.528Z,3.25
2022-10-09T14:23:56.058Z,4.80
2022-10-09T14:26:29.226Z,5.03
2022-10-09T14:29:03.998Z,5.30
2022-10-09T14:31:36.711Z,4.15
2022-10-09T14:34:10.907Z,4.00
2022-10-09T14:36:43.554Z,5.82
2022-10-09T14:39:17.089Z,4.85
2022-10-09T14:41:49.977Z,4.50
2022-10-09T14:44:25.004Z,4.97
2022-10-09T14:46:58.723Z,5.80
2022-10-09T14:49:31.575Z,5.15
2022-10-09T14:52:04.209Z,4.00
2022-10-09T14:54:37.379Z,5.03
2022-10-09T14:57:10.061Z,4.25
2022-10-09T14:59:44.302Z,4.32
2022-10-09T15:02:18.166Z,3.10
2022-10-09T15:04:50.872Z,3.25
2022-10-09T15:07:24.491Z,3.83
2022-10-09T15:09:58.130Z,5.05
2022-10-09T15:12:30.867Z,3.55
2022-10-09T15:15:05.627Z,4.15
2022-10-09T15:17:38.819Z,4.65
2022-10-09T15:20:12.851Z,5.15
2022-10-09T15:22:45.766Z,6.13
2022-10-09T15:27:54.558Z,5.72
2022-10-09T15:30:29.660Z,7.13
2022-10-09T15:33:03.520Z,6.38
2022-10-09T15:35:36.386Z,5.00
2022-10-09T15:38:15.099Z,3.15
2022-10-09T15:40:49.872Z,4.80
2022-10-09T15:43:25.334Z,5.00
2022-10-09T15:46:04.696Z,5.30
2022-10-09T15:48:37.371Z,3.95
2022-10-09T15:51:13.532Z,5.53
2022-10-09T15:53:48.286Z,7.45
2022-10-09T15:56:22.850Z,5.57
2022-10-09T15:58:57.928Z,5.75
2022-10-09T16:01:32.072Z,7.13
2022-10-09T16:04:04.763Z,8.27
2022-10-09T16:06:38.949Z,7.70
2022-10-09T16:09:11.950Z,5.63
2022-10-09T16:11:44.730Z,5.25
2022-10-09T16:14:17.389Z,7.30
2022-10-09T16:16:51.639Z,6.72
2022-10-09T16:19:24.514Z,5.88
2022-10-09T16:21:57.165Z,7.28
2022-10-09T16:24:31.686Z,7.82
2022-10-09T16:27:04.706Z,6.00
2022-10-09T16:32:12.275Z,7.47
2022-10-09T16:34:45.010Z,7.03
2022-10-09T16:37:17.864Z,5.88
2022-10-09T16:39:50.580Z,8.55
2022-10-09T16:42:23.403Z,11.32
2022-10-09T16:44:56.360Z,5.18
2022-10-09T16:50:04.328Z,6.18
2022-10-09T16:52:37.330Z,6.97
2022-10-09T16:57:42.859Z,8.73
2022-10-09T17:00:19.248Z,9.27
2022-10-09T17:02:53.729Z,9.55
2022-10-09T17:05:26.822Z,8.93
2022-10-09T17:10:33.539Z,6.40
2022-10-09T17:13:06.271Z,8.18
2022-10-09T17:15:41.444Z,5.25
2022-10-09T17:18:15.605Z,6.07
2022-10-09T17:20:48.576Z,9.73
2022-10-09T17:25:53.774Z,8.88
2022-10-09T17:28:26.800Z,10.85
2022-10-09T17:31:03.503Z,12.15
2022-10-09T17:33:42.898Z,11.75
2022-10-09T17:36:18.152Z,10.77
2022-10-09T17:38:51.726Z,13.05
2022-10-09T17:41:27.295Z,12.02
2022-10-09T17:44:00.428Z,13.52
2022-10-09T17:46:33.820Z,9.32
2022-10-09T17:49:08.062Z,11.57
2022-10-09T17:51:41.446Z,14.57
2022-10-09T17:54:17.302Z,13.77
2022-10-09T17:56:50.531Z,6.90
2022-10-09T17:59:23.323Z,9.65
2022-10-09T18:01:56.026Z,7.25
2022-10-09T18:04:30.107Z,11.95
2022-10-09T18:07:02.894Z,4.70
2022-10-09T18:09:35.722Z,7.50
2022-10-09T18:12:09.157Z,6.57
2022-10-09T18:14:41.944Z,5.97
2022-10-09T18:17:14.616Z,8.90
2022-10-09T18:19:49.014Z,6.43
2022-10-09T18:22:21.696Z,5.75
2022-10-09T18:24:54.426Z,4.95
2022-10-09T18:27:29.939Z,5.45
2022-10-09T18:30:03.149Z,6.07
2022-10-09T18:32:35.898Z,5.20
2022-10-09T18:35:12.778Z,4.78
2022-10-09T18:37:45.601Z,5.18
2022-10-09T18:40:22.474Z,5.35
2022-10-09T18:42:58.577Z,5.63
2022-10-09T18:45:34.467Z,5.15
2022-10-09T18:48:08.400Z,4.82
2022-10-09T18:50:44.255Z,7.68
2022-10-09T18:53:17.164Z,4.13
2022-10-09T18:55:51.029Z,3.95
2022-10-09T18:58:24.112Z,4.57
2022-10-09T19:03:31.223Z,4.07
2022-10-09T19:06:05.798Z,4.75
2022-10-09T19:08:38.847Z,6.53
2022-10-09T19:13:46.885Z,4.03
2022-10-09T19:16:19.540Z,3.55
2022-10-09T19:18:53.194Z,4.63
2022-10-09T19:21:27.859Z,3.63
2022-10-09T19:24:03.516Z,3.38
2022-10-09T19:26:36.252Z,4.72
2022-10-09T19:29:09.370Z,3.17
2022-10-09T19:31:42.840Z,4.40
2022-10-09T19:34:16.854Z,4.53
2022-10-09T19:36:51.776Z,4.45
2022-10-09T19:39:24.752Z,5.45
2022-10-09T19:41:57.536Z,4.95
2022-10-09T19:44:32.981Z,3.63
2022-10-09T19:47:05.823Z,3.95
2022-10-09T19:49:40.648Z,4.65
2022-10-09T19:52:14.725Z,5.30
2022-10-09T19:54:47.383Z,3.08
2022-10-09T19:57:20.160Z,4.68
2022-10-09T19:59:53.118Z,4.05
2022-10-09T20:02:26.010Z,6.20
2022-10-09T20:04:58.727Z,4.78
2022-10-09T20:07:33.227Z,5.53
2022-10-09T20:10:06.686Z,4.32
2022-10-09T20:12:39.792Z,5.15
2022-10-09T20:15:12.823Z,4.78
2022-10-09T20:17:45.702Z,4.28
2022-10-09T20:20:18.548Z,5.13
2022-10-09T20:22:53.330Z,3.75
2022-10-09T20:25:26.933Z,5.13
2022-10-09T20:28:00.204Z,5.65
2022-10-09T20:30:33.104Z,7.18
2022-10-09T20:33:05.826Z,5.20
2022-10-09T20:35:42.705Z,4.97
2022-10-09T20:38:20.867Z,5.50
2022-10-09T20:41:03.130Z,3.70
2022-10-09T20:43:36.189Z,4.88
2022-10-09T20:46:09.638Z,5.18
2022-10-09T20:48:43.371Z,6.60
2022-10-09T20:51:17.073Z,3.95
2022-10-09T20:53:55.741Z,4.70
2022-10-09T20:56:31.313Z,4.85
2022-10-09T20:59:04.762Z,3.53
2022-10-09T21:01:37.956Z,4.35
2022-10-09T21:04:12.148Z,4.38
2022-10-09T21:06:45.041Z,4.50
2022-10-09T21:09:19.127Z,5.90
2022-10-09T21:11:52.219Z,5.57
2022-10-09T21:16:57.483Z,4.85
2022-10-09T21:19:30.373Z,4.30
2022-10-09T21:22:03.145Z,6.47
2022-10-09T21:24:41.521Z,4.28
2022-10-09T21:27:14.389Z,4.82
2022-10-09T21:29:47.370Z,5.05
2022-10-09T21:32:21.396Z,6.00
2022-10-09T21:34:54.303Z,4.60
2022-10-09T21:37:26.999Z,4.15
2022-10-09T21:40:01.047Z,4.18
2022-10-09T21:42:33.789Z,5.57
2022-10-09T21:45:07.463Z,4.32
2022-10-09T21:47:40.218Z,6.13
2022-10-09T21:50:13.015Z,5.70
2022-10-09T21:52:45.725Z,4.65
2022-10-09T21:55:20.044Z,4.28
2022-10-09T21:57:53.095Z,6.72
2022-10-09T22:00:25.931Z,4.00
2022-10-09T22:02:58.703Z,3.90
2022-10-09T22:05:31.929Z,3.80
2022-10-09T22:08:04.592Z,4.80
2022-10-09T22:10:42.166Z,5.88
2022-10-09T22:13:14.903Z,3.60
2022-10-09T22:15:51.148Z,5.43
2022-10-09T22:18:24.179Z,6.10
2022-10-09T22:20:56.876Z,4.47
2022-10-09T22:23:29.665Z,4.13
2022-10-09T22:26:06.995Z,4.60
2022-10-09T22:28:39.811Z,4.38
2022-10-09T22:31:14.961Z,2.95
2022-10-09T22:33:51.614Z,4.25
2022-10-09T22:36:26.661Z,4.43
2022-10-09T22:39:01.220Z,6.18
2022-10-09T22:41:36.452Z,5.18
2022-10-09T22:44:11.318Z,4.78
2022-10-09T22:46:45.257Z,4.68
2022-10-09T22:49:18.691Z,4.15
2022-10-09T22:51:51.473Z,3.40
2022-10-09T22:54:24.100Z,4.18
2022-10-09T22:56:58.192Z,4.18
2022-10-09T22:59:30.990Z,4.78
2022-10-09T23:02:03.848Z,4.43
2022-10-09T23:04:36.548Z,4.60
2022-10-09T23:07:09.207Z,4.85
2022-10-09T23:09:41.851Z,5.60
2022-10-09T23:12:15.914Z,6.03
2022-10-09T23:14:48.560Z,4.63
2022-10-09T23:17:21.465Z,4.07
2022-10-09T23:19:54.063Z,4.53
2022-10-09T23:22:26.930Z,6.82
2022-10-09T23:24:59.514Z,5.32
2022-10-09T23:27:33.600Z,7.10
2022-10-09T23:30:07.057Z,3.63
2022-10-09T23:32:39.697Z,6.03
2022-10-09T23:35:12.996Z,5.57
2022-10-09T23:37:46.252Z,3.28
2022-10-09T23:42:53.292Z,6.78
2022-10-09T23:45:25.939Z,4.35
2022-10-09T23:47:58.736Z,4.82
2022-10-09T23:50:31.443Z,7.05
2022-10-09T23:53:04.289Z,3.78
2022-10-09T23:55:36.979Z,3.88
2022-10-09T23:58:11.117Z,4.90
